sensor_id;sensor_type;location;lat;lon;timestamp;temperature;humidity
9949;DHT22;5013;51.840;8.276;2023-06-24T00:00:45;17.10;1.00
9949;DHT22;5013;51.840;8.276;2023-06-24T00:03:11;17.20;99.90
9949;DHT22;5013;51.840;8.276;2023-06-24T00:05:37;17.20;1.00
9949;DHT22;5013;51.840;8.276;2023-06-24T00:08:04;17.20;1.00
9949;DHT22;5013;51.840;8.276;2023-06-24T00:10:32;17.10;99.90
9949;DHT22;5013;51.840;8.276;2023-06-24T00:12:58;17.10;1.00
9949;DHT22;5013;51.840;8.276;2023-06-24T00:15:26;17.00;1.00
9949;DHT22;5013;51.840;8.276;2023-06-24T00:17:52;16.90;1.00
9949;DHT22;5013;51.840;8.276;2023-06-24T00:20:18;16.90;1.00
9949;DHT22;5013;51.840;8.276;2023-06-24T00:22:45;17.00;1.00
9949;DHT22;5013;51.840;8.276;2023-06-24T00:25:14;16.80;99.90
9949;DHT22;5013;51.840;8.276;2023-06-24T00:27:41;16.70;99.90
9949;DHT22;5013;51.840;8.276;2023-06-24T00:30:08;16.80;1.00
9949;DHT22;5013;51.840;8.276;2023-06-24T00:32:33;16.80;1.00
9949;DHT22;5013;51.840;8.276;2023-06-24T00:34:59;16.90;99.90
9949;DHT22;5013;51.840;8.276;2023-06-24T00:37:25;16.80;99.90
9949;DHT22;5013;51.840;8.276;2023-06-24T00:39:51;16.80;1.00
9949;DHT22;5013;51.840;8.276;2023-06-24T00:42:17;16.70;1.00
9949;DHT22;5013;51.840;8.276;2023-06-24T00:44:43;16.70;99.90
9949;DHT22;5013;51.840;8.276;2023-06-24T00:47:08;16.60;99.90
9949;DHT22;5013;51.840;8.276;2023-06-24T00:49:35;16.60;99.90
9949;DHT22;5013;51.840;8.276;2023-06-24T00:52:01;16.60;87.50
9949;DHT22;5013;51.840;8.276;2023-06-24T00:54:27;16.60;1.00
9949;DHT22;5013;51.840;8.276;2023-06-24T00:56:57;16.70;99.90
9949;DHT22;5013;51.840;8.276;2023-06-24T00:59:25;16.60;99.90
9949;DHT22;5013;51.840;8.276;2023-06-24T01:01:54;16.70;1.00
9949;DHT22;5013;51.840;8.276;2023-06-24T01:04:20;16.70;1.00
9949;DHT22;5013;51.840;8.276;2023-06-24T01:06:45;16.60;99.90
9949;DHT22;5013;51.840;8.276;2023-06-24T01:09:12;16.60;99.90
9949;DHT22;5013;51.840;8.276;2023-06-24T01:11:38;16.60;1.00
9949;DHT22;5013;51.840;8.276;2023-06-24T01:14:04;16.60;1.00
9949;DHT22;5013;51.840;8.276;2023-06-24T01:16:53;16.50;1.00
9949;DHT22;5013;51.840;8.276;2023-06-24T01:19:37;16.50;99.90
9949;DHT22;5013;51.840;8.276;2023-06-24T01:25:13;16.60;1.00
9949;DHT22;5013;51.840;8.276;2023-06-24T01:27:57;16.50;99.90
9949;DHT22;5013;51.840;8.276;2023-06-24T01:34:28;16.60;1.00
9949;DHT22;5013;51.840;8.276;2023-06-24T01:36:50;16.50;1.00
9949;DHT22;5013;51.840;8.276;2023-06-24T01:39:18;16.30;1.00
9949;DHT22;5013;51.840;8.276;2023-06-24T01:41:55;16.30;1.00
9949;DHT22;5013;51.840;8.276;2023-06-24T01:44:23;16.30;1.00
9949;DHT22;5013;51.840;8.276;2023-06-24T01:46:55;16.30;99.90
9949;DHT22;5013;51.840;8.276;2023-06-24T01:49:23;16.30;99.90
9949;DHT22;5013;51.840;8.276;2023-06-24T01:51:52;16.20;99.90
9949;DHT22;5013;51.840;8.276;2023-06-24T01:54:21;16.20;99.90
9949;DHT22;5013;51.840;8.276;2023-06-24T01:56:48;16.20;99.90
9949;DHT22;5013;51.840;8.276;2023-06-24T01:59:16;16.20;1.00
9949;DHT22;5013;51.840;8.276;2023-06-24T02:01:44;16.10;1.00
9949;DHT22;5013;51.840;8.276;2023-06-24T02:04:10;16.20;1.00
9949;DHT22;5013;51.840;8.276;2023-06-24T02:06:38;16.10;99.90
9949;DHT22;5013;51.840;8.276;2023-06-24T02:09:06;16.00;99.90
9949;DHT22;5013;51.840;8.276;2023-06-24T02:11:33;16.00;1.00
9949;DHT22;5013;51.840;8.276;2023-06-24T02:14:02;16.10;1.00
9949;DHT22;5013;51.840;8.276;2023-06-24T02:16:29;16.00;99.90
9949;DHT22;5013;51.840;8.276;2023-06-24T02:18:56;16.00;99.90
9949;DHT22;5013;51.840;8.276;2023-06-24T02:21:23;15.90;1.00
9949;DHT22;5013;51.840;8.276;2023-06-24T02:23:49;15.90;1.00
9949;DHT22;5013;51.840;8.276;2023-06-24T02:26:17;15.90;1.00
9949;DHT22;5013;51.840;8.276;2023-06-24T02:28:44;15.90;1.00
9949;DHT22;5013;51.840;8.276;2023-06-24T02:31:12;15.90;1.00
9949;DHT22;5013;51.840;8.276;2023-06-24T02:33:38;15.90;1.00
9949;DHT22;5013;51.840;8.276;2023-06-24T02:36:04;15.90;1.00
9949;DHT22;5013;51.840;8.276;2023-06-24T02:38:30;15.80;1.00
9949;DHT22;5013;51.840;8.276;2023-06-24T02:40:55;15.90;1.00
9949;DHT22;5013;51.840;8.276;2023-06-24T02:43:21;15.90;99.90
9949;DHT22;5013;51.840;8.276;2023-06-24T02:45:48;16.00;99.90
9949;DHT22;5013;51.840;8.276;2023-06-24T02:48:15;15.90;99.90
9949;DHT22;5013;51.840;8.276;2023-06-24T02:50:41;16.00;1.00
9949;DHT22;5013;51.840;8.276;2023-06-24T02:53:14;16.00;1.00
9949;DHT22;5013;51.840;8.276;2023-06-24T02:55:40;15.80;99.90
9949;DHT22;5013;51.840;8.276;2023-06-24T02:58:08;15.80;99.90
9949;DHT22;5013;51.840;8.276;2023-06-24T03:00:37;15.70;1.00
9949;DHT22;5013;51.840;8.276;2023-06-24T03:03:04;15.70;1.00
9949;DHT22;5013;51.840;8.276;2023-06-24T03:05:30;15.70;1.00
9949;DHT22;5013;51.840;8.276;2023-06-24T03:07:57;15.70;1.00
9949;DHT22;5013;51.840;8.276;2023-06-24T03:10:24;15.70;1.00
9949;DHT22;5013;51.840;8.276;2023-06-24T03:12:50;15.80;99.90
9949;DHT22;5013;51.840;8.276;2023-06-24T03:15:16;15.70;1.00
9949;DHT22;5013;51.840;8.276;2023-06-24T03:17:41;15.70;1.00
9949;DHT22;5013;51.840;8.276;2023-06-24T03:20:07;15.70;73.20
9949;DHT22;5013;51.840;8.276;2023-06-24T03:22:34;15.80;99.90
9949;DHT22;5013;51.840;8.276;2023-06-24T03:24:59;15.80;1.00
9949;DHT22;5013;51.840;8.276;2023-06-24T03:27:25;15.80;1.00
9949;DHT22;5013;51.840;8.276;2023-06-24T03:29:50;15.70;1.00
9949;DHT22;5013;51.840;8.276;2023-06-24T03:32:16;15.70;1.00
9949;DHT22;5013;51.840;8.276;2023-06-24T03:34:41;15.70;1.00
9949;DHT22;5013;51.840;8.276;2023-06-24T03:37:07;15.70;1.00
9949;DHT22;5013;51.840;8.276;2023-06-24T03:39:32;15.60;1.00
9949;DHT22;5013;51.840;8.276;2023-06-24T03:41:58;15.80;99.90
9949;DHT22;5013;51.840;8.276;2023-06-24T03:44:24;15.80;1.00
9949;DHT22;5013;51.840;8.276;2023-06-24T03:46:49;15.80;99.90
9949;DHT22;5013;51.840;8.276;2023-06-24T03:49:15;15.80;99.90
9949;DHT22;5013;51.840;8.276;2023-06-24T03:51:40;15.80;99.90
9949;DHT22;5013;51.840;8.276;2023-06-24T03:54:06;15.90;99.90
9949;DHT22;5013;51.840;8.276;2023-06-24T03:56:31;15.90;1.00
9949;DHT22;5013;51.840;8.276;2023-06-24T03:58:57;16.00;99.90
9949;DHT22;5013;51.840;8.276;2023-06-24T04:01:22;16.10;1.00
9949;DHT22;5013;51.840;8.276;2023-06-24T04:03:48;16.10;99.90
9949;DHT22;5013;51.840;8.276;2023-06-24T04:06:14;16.20;99.90
9949;DHT22;5013;51.840;8.276;2023-06-24T04:08:39;16.10;99.90
9949;DHT22;5013;51.840;8.276;2023-06-24T04:11:05;16.20;99.90
9949;DHT22;5013;51.840;8.276;2023-06-24T04:13:32;16.20;99.90
9949;DHT22;5013;51.840;8.276;2023-06-24T04:15:58;16.30;1.00
9949;DHT22;5013;51.840;8.276;2023-06-24T04:18:23;16.40;1.00
9949;DHT22;5013;51.840;8.276;2023-06-24T04:20:49;16.40;99.90
9949;DHT22;5013;51.840;8.276;2023-06-24T04:23:14;16.30;99.90
9949;DHT22;5013;51.840;8.276;2023-06-24T04:25:41;16.40;1.00
9949;DHT22;5013;51.840;8.276;2023-06-24T04:28:06;16.40;99.90
9949;DHT22;5013;51.840;8.276;2023-06-24T04:30:32;16.50;99.90
9949;DHT22;5013;51.840;8.276;2023-06-24T04:33:01;16.60;99.90
9949;DHT22;5013;51.840;8.276;2023-06-24T04:35:26;16.70;1.00
9949;DHT22;5013;51.840;8.276;2023-06-24T04:37:52;16.70;24.20
9949;DHT22;5013;51.840;8.276;2023-06-24T04:40:18;16.80;1.00
9949;DHT22;5013;51.840;8.276;2023-06-24T04:42:45;16.90;6.30
9949;DHT22;5013;51.840;8.276;2023-06-24T04:45:11;16.90;1.00
9949;DHT22;5013;51.840;8.276;2023-06-24T04:47:37;17.10;99.90
9949;DHT22;5013;51.840;8.276;2023-06-24T04:50:03;17.30;99.90
9949;DHT22;5013;51.840;8.276;2023-06-24T04:52:29;18.00;99.90
9949;DHT22;5013;51.840;8.276;2023-06-24T04:54:54;19.40;12.20
9949;DHT22;5013;51.840;8.276;2023-06-24T04:57:25;20.50;1.00
9949;DHT22;5013;51.840;8.276;2023-06-24T04:59:51;21.10;99.90
9949;DHT22;5013;51.840;8.276;2023-06-24T05:02:17;21.80;1.00
9949;DHT22;5013;51.840;8.276;2023-06-24T05:04:42;21.60;1.00
9949;DHT22;5013;51.840;8.276;2023-06-24T05:07:08;21.70;1.00
9949;DHT22;5013;51.840;8.276;2023-06-24T05:09:33;21.70;1.00
9949;DHT22;5013;51.840;8.276;2023-06-24T05:12:06;22.20;1.00
9949;DHT22;5013;51.840;8.276;2023-06-24T05:14:33;22.10;1.00
9949;DHT22;5013;51.840;8.276;2023-06-24T05:16:59;21.80;1.00
9949;DHT22;5013;51.840;8.276;2023-06-24T05:19:25;21.30;99.90
9949;DHT22;5013;51.840;8.276;2023-06-24T05:21:50;21.30;99.90
9949;DHT22;5013;51.840;8.276;2023-06-24T05:24:16;20.90;1.00
9949;DHT22;5013;51.840;8.276;2023-06-24T05:26:41;20.70;99.90
9949;DHT22;5013;51.840;8.276;2023-06-24T05:29:07;20.60;1.00
9949;DHT22;5013;51.840;8.276;2023-06-24T05:31:32;20.70;99.90
9949;DHT22;5013;51.840;8.276;2023-06-24T05:33:58;20.80;99.90
9949;DHT22;5013;51.840;8.276;2023-06-24T05:36:23;20.90;99.90
9949;DHT22;5013;51.840;8.276;2023-06-24T05:38:49;20.80;99.90
9949;DHT22;5013;51.840;8.276;2023-06-24T05:41:15;21.00;99.90
9949;DHT22;5013;51.840;8.276;2023-06-24T05:43:43;21.00;99.90
9949;DHT22;5013;51.840;8.276;2023-06-24T05:46:09;21.60;99.90
9949;DHT22;5013;51.840;8.276;2023-06-24T05:48:34;21.80;99.90
9949;DHT22;5013;51.840;8.276;2023-06-24T05:51:00;21.80;1.00
9949;DHT22;5013;51.840;8.276;2023-06-24T05:53:25;21.80;1.00
9949;DHT22;5013;51.840;8.276;2023-06-24T05:55:51;22.10;99.90
9949;DHT22;5013;51.840;8.276;2023-06-24T05:58:16;21.90;99.90
9949;DHT22;5013;51.840;8.276;2023-06-24T06:00:42;21.80;55.90
9949;DHT22;5013;51.840;8.276;2023-06-24T06:03:08;22.10;99.90
9949;DHT22;5013;51.840;8.276;2023-06-24T06:05:34;22.20;17.50
9949;DHT22;5013;51.840;8.276;2023-06-24T06:08:00;22.60;87.00
9949;DHT22;5013;51.840;8.276;2023-06-24T06:10:25;22.30;22.60
9949;DHT22;5013;51.840;8.276;2023-06-24T06:12:51;21.90;99.90
9949;DHT22;5013;51.840;8.276;2023-06-24T06:15:18;21.90;99.90
9949;DHT22;5013;51.840;8.276;2023-06-24T06:17:45;22.20;99.90
9949;DHT22;5013;51.840;8.276;2023-06-24T06:20:11;22.30;99.90
9949;DHT22;5013;51.840;8.276;2023-06-24T06:22:37;22.20;99.90
9949;DHT22;5013;51.840;8.276;2023-06-24T06:25:06;22.20;1.00
9949;DHT22;5013;51.840;8.276;2023-06-24T06:27:33;22.40;99.90
9949;DHT22;5013;51.840;8.276;2023-06-24T06:29:58;22.10;1.00
9949;DHT22;5013;51.840;8.276;2023-06-24T06:32:24;22.30;99.90
9949;DHT22;5013;51.840;8.276;2023-06-24T06:34:50;22.30;99.90
9949;DHT22;5013;51.840;8.276;2023-06-24T06:37:16;22.60;99.90
9949;DHT22;5013;51.840;8.276;2023-06-24T06:39:41;22.30;1.00
9949;DHT22;5013;51.840;8.276;2023-06-24T06:42:07;22.40;1.00
9949;DHT22;5013;51.840;8.276;2023-06-24T06:44:33;22.30;99.90
9949;DHT22;5013;51.840;8.276;2023-06-24T06:46:58;22.70;99.90
9949;DHT22;5013;51.840;8.276;2023-06-24T06:49:24;23.30;1.00
9949;DHT22;5013;51.840;8.276;2023-06-24T06:51:49;23.20;1.00
9949;DHT22;5013;51.840;8.276;2023-06-24T06:54:15;22.90;1.00
9949;DHT22;5013;51.840;8.276;2023-06-24T06:56:40;22.80;1.00
9949;DHT22;5013;51.840;8.276;2023-06-24T06:59:06;22.80;1.00
9949;DHT22;5013;51.840;8.276;2023-06-24T07:01:32;23.00;1.00
9949;DHT22;5013;51.840;8.276;2023-06-24T07:03:57;22.90;47.00
9949;DHT22;5013;51.840;8.276;2023-06-24T07:06:23;22.90;1.00
9949;DHT22;5013;51.840;8.276;2023-06-24T07:08:48;22.90;1.00
9949;DHT22;5013;51.840;8.276;2023-06-24T07:11:14;23.00;1.00
9949;DHT22;5013;51.840;8.276;2023-06-24T07:13:40;23.20;89.80
9949;DHT22;5013;51.840;8.276;2023-06-24T07:16:05;23.50;1.00
9949;DHT22;5013;51.840;8.276;2023-06-24T07:18:31;23.90;1.00
9949;DHT22;5013;51.840;8.276;2023-06-24T07:20:59;24.00;1.00
9949;DHT22;5013;51.840;8.276;2023-06-24T07:23:25;24.10;99.90
9949;DHT22;5013;51.840;8.276;2023-06-24T07:25:50;24.50;99.90
9949;DHT22;5013;51.840;8.276;2023-06-24T07:28:16;24.80;99.90
9949;DHT22;5013;51.840;8.276;2023-06-24T07:30:42;24.30;99.90
9949;DHT22;5013;51.840;8.276;2023-06-24T07:33:07;23.70;1.00
9949;DHT22;5013;51.840;8.276;2023-06-24T07:35:33;24.10;1.00
9949;DHT22;5013;51.840;8.276;2023-06-24T07:37:59;24.10;1.00
9949;DHT22;5013;51.840;8.276;2023-06-24T07:40:25;24.00;1.00
9949;DHT22;5013;51.840;8.276;2023-06-24T07:42:50;23.80;1.00
9949;DHT22;5013;51.840;8.276;2023-06-24T07:45:16;23.90;99.90
9949;DHT22;5013;51.840;8.276;2023-06-24T07:47:41;24.00;1.00
9949;DHT22;5013;51.840;8.276;2023-06-24T07:50:07;24.20;1.00
9949;DHT22;5013;51.840;8.276;2023-06-24T07:52:36;24.70;1.00
9949;DHT22;5013;51.840;8.276;2023-06-24T07:55:01;24.70;1.00
9949;DHT22;5013;51.840;8.276;2023-06-24T07:57:29;24.80;99.90
9949;DHT22;5013;51.840;8.276;2023-06-24T07:59:54;25.10;1.00
9949;DHT22;5013;51.840;8.276;2023-06-24T08:02:20;25.10;99.90
9949;DHT22;5013;51.840;8.276;2023-06-24T08:04:45;25.00;99.90
9949;DHT22;5013;51.840;8.276;2023-06-24T08:07:12;25.10;99.90
9949;DHT22;5013;51.840;8.276;2023-06-24T08:09:37;25.30;99.90
9949;DHT22;5013;51.840;8.276;2023-06-24T08:12:03;25.50;99.90
9949;DHT22;5013;51.840;8.276;2023-06-24T08:14:29;25.90;99.90
9949;DHT22;5013;51.840;8.276;2023-06-24T08:16:55;25.70;99.90
9949;DHT22;5013;51.840;8.276;2023-06-24T08:19:20;25.90;99.90
9949;DHT22;5013;51.840;8.276;2023-06-24T08:21:46;25.70;99.90
9949;DHT22;5013;51.840;8.276;2023-06-24T08:24:11;25.70;99.90
9949;DHT22;5013;51.840;8.276;2023-06-24T08:29:40;26.10;30.20
9949;DHT22;5013;51.840;8.276;2023-06-24T08:32:06;25.90;90.90
9949;DHT22;5013;51.840;8.276;2023-06-24T08:34:33;25.70;99.90
9949;DHT22;5013;51.840;8.276;2023-06-24T08:36:58;26.00;99.90
9949;DHT22;5013;51.840;8.276;2023-06-24T08:39:24;25.90;1.00
9949;DHT22;5013;51.840;8.276;2023-06-24T08:41:50;26.40;1.00
9949;DHT22;5013;51.840;8.276;2023-06-24T08:44:16;26.20;1.00
9949;DHT22;5013;51.840;8.276;2023-06-24T08:46:41;26.30;1.00
9949;DHT22;5013;51.840;8.276;2023-06-24T08:49:26;25.90;1.00
9949;DHT22;5013;51.840;8.276;2023-06-24T08:52:08;26.20;8.80
9949;DHT22;5013;51.840;8.276;2023-06-24T08:54:36;26.80;1.00
9949;DHT22;5013;51.840;8.276;2023-06-24T08:57:04;26.70;1.00
9949;DHT22;5013;51.840;8.276;2023-06-24T08:59:37;26.80;1.00
9949;DHT22;5013;51.840;8.276;2023-06-24T09:02:03;27.00;1.00
9949;DHT22;5013;51.840;8.276;2023-06-24T09:04:29;27.40;1.00
9949;DHT22;5013;51.840;8.276;2023-06-24T09:06:54;27.80;1.00
9949;DHT22;5013;51.840;8.276;2023-06-24T09:09:21;27.50;1.00
9949;DHT22;5013;51.840;8.276;2023-06-24T09:11:55;27.50;1.00
9949;DHT22;5013;51.840;8.276;2023-06-24T09:14:21;27.40;1.00
9949;DHT22;5013;51.840;8.276;2023-06-24T09:17:00;27.70;1.00
9949;DHT22;5013;51.840;8.276;2023-06-24T09:19:27;28.10;1.00
9949;DHT22;5013;51.840;8.276;2023-06-24T09:22:01;28.10;1.00
9949;DHT22;5013;51.840;8.276;2023-06-24T09:24:27;28.50;1.00
9949;DHT22;5013;51.840;8.276;2023-06-24T09:26:56;28.60;1.00
9949;DHT22;5013;51.840;8.276;2023-06-24T09:29:31;28.70;1.00
9949;DHT22;5013;51.840;8.276;2023-06-24T09:31:57;28.60;1.00
9949;DHT22;5013;51.840;8.276;2023-06-24T09:34:24;28.70;1.00
9949;DHT22;5013;51.840;8.276;2023-06-24T09:36:54;28.50;1.00
9949;DHT22;5013;51.840;8.276;2023-06-24T09:39:20;28.80;1.00
9949;DHT22;5013;51.840;8.276;2023-06-24T09:41:50;29.30;1.00
9949;DHT22;5013;51.840;8.276;2023-06-24T09:44:17;29.60;1.00
9949;DHT22;5013;51.840;8.276;2023-06-24T09:46:44;29.70;1.00
9949;DHT22;5013;51.840;8.276;2023-06-24T09:49:10;29.30;1.00
9949;DHT22;5013;51.840;8.276;2023-06-24T09:51:44;29.40;1.00
9949;DHT22;5013;51.840;8.276;2023-06-24T09:54:12;29.50;1.00
9949;DHT22;5013;51.840;8.276;2023-06-24T09:56:42;29.90;1.00
9949;DHT22;5013;51.840;8.276;2023-06-24T09:59:09;29.50;1.00
9949;DHT22;5013;51.840;8.276;2023-06-24T10:01:39;29.30;1.00
9949;DHT22;5013;51.840;8.276;2023-06-24T10:04:06;28.80;1.00
9949;DHT22;5013;51.840;8.276;2023-06-24T10:06:35;28.80;1.00
9949;DHT22;5013;51.840;8.276;2023-06-24T10:09:01;28.60;1.00
9949;DHT22;5013;51.840;8.276;2023-06-24T10:11:27;28.70;1.00
9949;DHT22;5013;51.840;8.276;2023-06-24T10:13:53;29.20;1.00
9949;DHT22;5013;51.840;8.276;2023-06-24T10:16:20;29.10;1.00
9949;DHT22;5013;51.840;8.276;2023-06-24T10:18:46;29.00;1.00
9949;DHT22;5013;51.840;8.276;2023-06-24T10:21:12;29.40;1.00
9949;DHT22;5013;51.840;8.276;2023-06-24T10:23:53;29.70;1.00
9949;DHT22;5013;51.840;8.276;2023-06-24T10:26:29;29.80;1.00
9949;DHT22;5013;51.840;8.276;2023-06-24T10:29:08;29.70;1.00
9949;DHT22;5013;51.840;8.276;2023-06-24T10:36:54;30.40;1.00
9949;DHT22;5013;51.840;8.276;2023-06-24T10:47:36;30.00;1.00
9949;DHT22;5013;51.840;8.276;2023-06-24T10:50:02;30.00;1.00
9949;DHT22;5013;51.840;8.276;2023-06-24T10:52:28;29.60;1.00
9949;DHT22;5013;51.840;8.276;2023-06-24T10:54:55;29.10;1.00
9949;DHT22;5013;51.840;8.276;2023-06-24T10:57:23;29.10;1.00
9949;DHT22;5013;51.840;8.276;2023-06-24T10:59:49;29.30;1.00
9949;DHT22;5013;51.840;8.276;2023-06-24T11:02:17;29.50;1.00
9949;DHT22;5013;51.840;8.276;2023-06-24T11:04:47;29.90;1.00
9949;DHT22;5013;51.840;8.276;2023-06-24T11:07:14;29.70;1.00
9949;DHT22;5013;51.840;8.276;2023-06-24T11:09:48;29.80;1.00
9949;DHT22;5013;51.840;8.276;2023-06-24T11:12:14;30.40;1.00
9949;DHT22;5013;51.840;8.276;2023-06-24T11:14:40;30.10;1.00
9949;DHT22;5013;51.840;8.276;2023-06-24T11:17:06;30.00;1.00
9949;DHT22;5013;51.840;8.276;2023-06-24T11:19:32;30.00;1.00
9949;DHT22;5013;51.840;8.276;2023-06-24T11:22:01;30.10;1.00
9949;DHT22;5013;51.840;8.276;2023-06-24T11:24:30;30.00;1.00
9949;DHT22;5013;51.840;8.276;2023-06-24T11:26:56;30.10;1.00
9949;DHT22;5013;51.840;8.276;2023-06-24T11:29:22;30.10;1.00
9949;DHT22;5013;51.840;8.276;2023-06-24T11:31:49;29.90;1.00
9949;DHT22;5013;51.840;8.276;2023-06-24T11:34:15;29.80;1.00
9949;DHT22;5013;51.840;8.276;2023-06-24T11:36:40;29.60;1.00
9949;DHT22;5013;51.840;8.276;2023-06-24T11:39:06;29.60;1.00
9949;DHT22;5013;51.840;8.276;2023-06-24T11:41:32;29.90;1.00
9949;DHT22;5013;51.840;8.276;2023-06-24T11:43:58;30.10;1.00
9949;DHT22;5013;51.840;8.276;2023-06-24T11:46:27;29.70;1.00
9949;DHT22;5013;51.840;8.276;2023-06-24T11:49:05;29.70;1.00
9949;DHT22;5013;51.840;8.276;2023-06-24T11:51:32;29.90;1.00
9949;DHT22;5013;51.840;8.276;2023-06-24T11:54:02;30.00;1.00
9949;DHT22;5013;51.840;8.276;2023-06-24T11:56:35;30.30;1.00
9949;DHT22;5013;51.840;8.276;2023-06-24T11:59:04;30.60;1.00
9949;DHT22;5013;51.840;8.276;2023-06-24T12:01:33;30.60;1.00
9949;DHT22;5013;51.840;8.276;2023-06-24T12:04:12;30.60;1.00
9949;DHT22;5013;51.840;8.276;2023-06-24T12:06:41;30.20;1.00
9949;DHT22;5013;51.840;8.276;2023-06-24T12:09:08;30.00;1.00
9949;DHT22;5013;51.840;8.276;2023-06-24T12:11:33;30.10;1.00
9949;DHT22;5013;51.840;8.276;2023-06-24T12:13:59;29.90;1.00
9949;DHT22;5013;51.840;8.276;2023-06-24T12:16:24;30.10;1.00
9949;DHT22;5013;51.840;8.276;2023-06-24T12:18:52;30.20;1.00
9949;DHT22;5013;51.840;8.276;2023-06-24T12:21:17;30.20;1.00
9949;DHT22;5013;51.840;8.276;2023-06-24T12:23:44;30.50;1.00
9949;DHT22;5013;51.840;8.276;2023-06-24T12:26:09;30.60;1.00
9949;DHT22;5013;51.840;8.276;2023-06-24T12:28:35;30.80;1.00
9949;DHT22;5013;51.840;8.276;2023-06-24T12:31:00;30.40;1.00
9949;DHT22;5013;51.840;8.276;2023-06-24T12:33:26;30.40;1.00
9949;DHT22;5013;51.840;8.276;2023-06-24T12:35:51;30.60;1.00
9949;DHT22;5013;51.840;8.276;2023-06-24T12:38:17;30.60;1.00
9949;DHT22;5013;51.840;8.276;2023-06-24T12:40:43;30.60;1.00
9949;DHT22;5013;51.840;8.276;2023-06-24T12:43:10;30.70;1.00
9949;DHT22;5013;51.840;8.276;2023-06-24T12:45:40;30.70;1.00
9949;DHT22;5013;51.840;8.276;2023-06-24T12:48:08;30.40;1.00
9949;DHT22;5013;51.840;8.276;2023-06-24T12:50:34;30.20;1.00
9949;DHT22;5013;51.840;8.276;2023-06-24T12:53:00;29.70;1.00
9949;DHT22;5013;51.840;8.276;2023-06-24T12:55:25;30.00;1.00
9949;DHT22;5013;51.840;8.276;2023-06-24T12:57:51;30.30;1.00
9949;DHT22;5013;51.840;8.276;2023-06-24T13:00:19;30.50;1.00
9949;DHT22;5013;51.840;8.276;2023-06-24T13:02:46;30.60;1.00
9949;DHT22;5013;51.840;8.276;2023-06-24T13:05:11;30.40;1.00
9949;DHT22;5013;51.840;8.276;2023-06-24T13:07:37;30.30;1.00
9949;DHT22;5013;51.840;8.276;2023-06-24T13:10:03;30.60;1.00
9949;DHT22;5013;51.840;8.276;2023-06-24T13:12:31;30.60;1.00
9949;DHT22;5013;51.840;8.276;2023-06-24T13:14:57;30.60;1.00
9949;DHT22;5013;51.840;8.276;2023-06-24T13:17:22;30.20;1.00
9949;DHT22;5013;51.840;8.276;2023-06-24T13:19:48;30.00;1.00
9949;DHT22;5013;51.840;8.276;2023-06-24T13:22:13;30.30;1.00
9949;DHT22;5013;51.840;8.276;2023-06-24T13:24:39;30.40;1.00
9949;DHT22;5013;51.840;8.276;2023-06-24T13:27:05;30.20;1.00
9949;DHT22;5013;51.840;8.276;2023-06-24T13:29:30;30.30;1.00
9949;DHT22;5013;51.840;8.276;2023-06-24T13:31:58;30.00;1.00
9949;DHT22;5013;51.840;8.276;2023-06-24T13:34:23;29.90;1.00
9949;DHT22;5013;51.840;8.276;2023-06-24T13:36:49;29.80;1.00
9949;DHT22;5013;51.840;8.276;2023-06-24T13:39:15;29.90;1.00
9949;DHT22;5013;51.840;8.276;2023-06-24T13:41:43;29.90;1.00
9949;DHT22;5013;51.840;8.276;2023-06-24T13:44:09;29.80;1.00
9949;DHT22;5013;51.840;8.276;2023-06-24T13:46:35;29.90;1.00
9949;DHT22;5013;51.840;8.276;2023-06-24T13:49:01;29.50;1.00
9949;DHT22;5013;51.840;8.276;2023-06-24T13:51:27;29.40;1.00
9949;DHT22;5013;51.840;8.276;2023-06-24T13:53:53;29.40;1.00
9949;DHT22;5013;51.840;8.276;2023-06-24T13:56:23;29.40;1.00
9949;DHT22;5013;51.840;8.276;2023-06-24T13:58:50;29.50;1.00
9949;DHT22;5013;51.840;8.276;2023-06-24T14:01:16;29.90;1.00
9949;DHT22;5013;51.840;8.276;2023-06-24T14:03:42;30.00;1.00
9949;DHT22;5013;51.840;8.276;2023-06-24T14:06:08;29.70;1.00
9949;DHT22;5013;51.840;8.276;2023-06-24T14:08:34;29.50;1.00
9949;DHT22;5013;51.840;8.276;2023-06-24T14:11:00;29.40;1.00
9949;DHT22;5013;51.840;8.276;2023-06-24T14:13:27;29.40;1.00
9949;DHT22;5013;51.840;8.276;2023-06-24T14:15:54;29.50;1.00
9949;DHT22;5013;51.840;8.276;2023-06-24T14:18:19;29.50;1.00
9949;DHT22;5013;51.840;8.276;2023-06-24T14:20:45;29.60;1.00
9949;DHT22;5013;51.840;8.276;2023-06-24T14:23:11;29.90;1.00
9949;DHT22;5013;51.840;8.276;2023-06-24T14:25:36;29.90;1.00
9949;DHT22;5013;51.840;8.276;2023-06-24T14:28:06;30.20;1.00
9949;DHT22;5013;51.840;8.276;2023-06-24T14:30:32;30.10;1.00
9949;DHT22;5013;51.840;8.276;2023-06-24T14:32:57;30.10;1.00
9949;DHT22;5013;51.840;8.276;2023-06-24T14:35:23;30.30;1.00
9949;DHT22;5013;51.840;8.276;2023-06-24T14:37:49;30.00;1.00
9949;DHT22;5013;51.840;8.276;2023-06-24T14:40:14;29.90;1.00
9949;DHT22;5013;51.840;8.276;2023-06-24T14:42:40;29.90;1.00
9949;DHT22;5013;51.840;8.276;2023-06-24T14:45:05;30.10;1.00
9949;DHT22;5013;51.840;8.276;2023-06-24T14:47:31;30.00;1.00
9949;DHT22;5013;51.840;8.276;2023-06-24T14:49:57;29.90;1.00
9949;DHT22;5013;51.840;8.276;2023-06-24T14:52:23;30.10;1.00
9949;DHT22;5013;51.840;8.276;2023-06-24T14:54:48;30.00;1.00
9949;DHT22;5013;51.840;8.276;2023-06-24T14:57:14;29.90;1.00
9949;DHT22;5013;51.840;8.276;2023-06-24T14:59:43;29.90;1.00
9949;DHT22;5013;51.840;8.276;2023-06-24T15:02:08;29.90;1.00
9949;DHT22;5013;51.840;8.276;2023-06-24T15:04:36;29.80;1.00
9949;DHT22;5013;51.840;8.276;2023-06-24T15:07:02;29.80;1.00
9949;DHT22;5013;51.840;8.276;2023-06-24T15:09:28;29.80;1.00
9949;DHT22;5013;51.840;8.276;2023-06-24T15:11:53;29.80;1.00
9949;DHT22;5013;51.840;8.276;2023-06-24T15:14:19;29.80;1.00
9949;DHT22;5013;51.840;8.276;2023-06-24T15:16:44;29.60;1.00
9949;DHT22;5013;51.840;8.276;2023-06-24T15:19:10;29.80;1.00
9949;DHT22;5013;51.840;8.276;2023-06-24T15:21:35;29.90;1.00
9949;DHT22;5013;51.840;8.276;2023-06-24T15:24:01;30.00;1.00
9949;DHT22;5013;51.840;8.276;2023-06-24T15:26:26;30.00;1.00
9949;DHT22;5013;51.840;8.276;2023-06-24T15:28:52;29.80;1.00
9949;DHT22;5013;51.840;8.276;2023-06-24T15:31:19;29.50;1.00
9949;DHT22;5013;51.840;8.276;2023-06-24T15:33:44;29.50;1.00
9949;DHT22;5013;51.840;8.276;2023-06-24T15:36:19;29.50;1.00
9949;DHT22;5013;51.840;8.276;2023-06-24T15:38:47;29.70;1.00
9949;DHT22;5013;51.840;8.276;2023-06-24T15:41:16;29.70;1.00
9949;DHT22;5013;51.840;8.276;2023-06-24T15:43:42;29.60;1.00
9949;DHT22;5013;51.840;8.276;2023-06-24T15:46:08;29.70;1.00
9949;DHT22;5013;51.840;8.276;2023-06-24T15:48:35;29.60;1.00
9949;DHT22;5013;51.840;8.276;2023-06-24T15:51:04;29.50;1.00
9949;DHT22;5013;51.840;8.276;2023-06-24T15:53:31;29.50;1.00
9949;DHT22;5013;51.840;8.276;2023-06-24T15:55:57;29.50;1.00
9949;DHT22;5013;51.840;8.276;2023-06-24T15:58:22;29.40;1.00
9949;DHT22;5013;51.840;8.276;2023-06-24T16:00:48;29.50;1.00
9949;DHT22;5013;51.840;8.276;2023-06-24T16:03:14;29.60;1.00
9949;DHT22;5013;51.840;8.276;2023-06-24T16:05:39;29.50;1.00
9949;DHT22;5013;51.840;8.276;2023-06-24T16:08:05;29.30;1.00
9949;DHT22;5013;51.840;8.276;2023-06-24T16:10:30;29.30;1.00
9949;DHT22;5013;51.840;8.276;2023-06-24T16:12:56;29.40;1.00
9949;DHT22;5013;51.840;8.276;2023-06-24T16:15:22;29.30;1.00
9949;DHT22;5013;51.840;8.276;2023-06-24T16:17:47;29.20;1.00
9949;DHT22;5013;51.840;8.276;2023-06-24T16:20:13;29.10;1.00
9949;DHT22;5013;51.840;8.276;2023-06-24T16:22:42;29.10;1.00
9949;DHT22;5013;51.840;8.276;2023-06-24T16:25:08;29.10;1.00
9949;DHT22;5013;51.840;8.276;2023-06-24T16:27:34;29.00;1.00
9949;DHT22;5013;51.840;8.276;2023-06-24T16:29:59;29.00;1.00
9949;DHT22;5013;51.840;8.276;2023-06-24T16:32:25;29.10;1.00
9949;DHT22;5013;51.840;8.276;2023-06-24T16:34:51;29.10;1.00